Ana Sayfa
METAR-TAF:

METAR-TAF

Havaalanları :

O'Neill Municipal Airport (John L. Baker Field)

O'Neill, Nebraska, Amerika Birleşik Devletleri

Enlem: 42-28N, Boylam: 098-41W, yükseklik: 619 m

Güncel hava durumu gözlemi

Rapor saat 11:15 UTC de 20 dakika önce yapıldı.
Rüzgar güneydan 7 kt
Sıcaklık 19°C
Nem 94%
Basınç 1003 hPa
Görüş mesafesi: 16.1 km
Açık gökyüzü

METAR: KONL 161115Z AUTO 17007KT 10SM CLR 19/18 A2961 RMK AO2 T01900177

Saat: 06:35 (11:35 UTC)


TAF: eksik

4.000'den fazla havaalanı için hava durumu gözlemleri ve tahminleri (METAR ve TAF raporları).

Kullanılabilir istasyonlar harita üzerinde sarı ve kırmızı noktalarla gösterilir.

İstasyonun adını görmek için fareyi noktanın üzerinde gezdirin.

Sonrasında hava gözlem ve tahminlerini görmek için tıklayın.

Haritayı değiştirmek için: yaklaştırmak için siyah artı işaretli yeşil düğmeye ve uzaklaştırmak için de eksi işaretli düğmeye hızla tıklayın; bitişik haritalar için yeşil okları kullanın.


METAR-TAF: